sensor_id;sensor_type;location;lat;lon;timestamp;P1;durP1;ratioP1;P2;durP2;ratioP2
70322;SDS011;57735;56.264;43.898;2022-11-23T00:00:31;6.53;;;3.08;;
70322;SDS011;57735;56.264;43.898;2022-11-23T00:03:03;6.95;;;2.58;;
70322;SDS011;57735;56.264;43.898;2022-11-23T00:05:33;5.82;;;2.47;;
70322;SDS011;57735;56.264;43.898;2022-11-23T00:08:04;3.75;;;1.45;;
70322;SDS011;57735;56.264;43.898;2022-11-23T00:10:35;4.03;;;1.85;;
70322;SDS011;57735;56.264;43.898;2022-11-23T00:13:06;5.30;;;2.08;;
70322;SDS011;57735;56.264;43.898;2022-11-23T00:15:39;3.42;;;1.98;;
70322;SDS011;57735;56.264;43.898;2022-11-23T00:18:10;3.70;;;1.90;;
70322;SDS011;57735;56.264;43.898;2022-11-23T00:20:41;4.00;;;1.83;;
70322;SDS011;57735;56.264;43.898;2022-11-23T00:23:12;3.95;;;1.60;;
70322;SDS011;57735;56.264;43.898;2022-11-23T00:25:43;3.33;;;1.45;;
70322;SDS011;57735;56.264;43.898;2022-11-23T00:28:15;3.33;;;1.67;;
70322;SDS011;57735;56.264;43.898;2022-11-23T00:30:52;2.47;;;1.30;;
70322;SDS011;57735;56.264;43.898;2022-11-23T00:33:23;2.30;;;1.38;;
70322;SDS011;57735;56.264;43.898;2022-11-23T00:36:01;5.45;;;1.70;;
70322;SDS011;57735;56.264;43.898;2022-11-23T00:41:15;2.17;;;1.25;;
70322;SDS011;57735;56.264;43.898;2022-11-23T00:43:47;3.25;;;1.20;;
70322;SDS011;57735;56.264;43.898;2022-11-23T00:46:20;2.00;;;1.40;;
70322;SDS011;57735;56.264;43.898;2022-11-23T00:48:53;3.83;;;1.60;;
70322;SDS011;57735;56.264;43.898;2022-11-23T00:51:29;1.73;;;0.88;;
70322;SDS011;57735;56.264;43.898;2022-11-23T00:54:03;2.50;;;1.48;;
70322;SDS011;57735;56.264;43.898;2022-11-23T00:56:35;3.20;;;1.65;;
70322;SDS011;57735;56.264;43.898;2022-11-23T00:59:05;3.55;;;1.50;;
70322;SDS011;57735;56.264;43.898;2022-11-23T01:01:36;2.85;;;1.42;;
70322;SDS011;57735;56.264;43.898;2022-11-23T01:04:07;2.15;;;1.23;;
70322;SDS011;57735;56.264;43.898;2022-11-23T01:06:39;2.50;;;1.30;;
70322;SDS011;57735;56.264;43.898;2022-11-23T01:09:14;2.58;;;1.40;;
70322;SDS011;57735;56.264;43.898;2022-11-23T01:11:54;3.33;;;1.30;;
70322;SDS011;57735;56.264;43.898;2022-11-23T01:14:25;1.30;;;1.02;;
70322;SDS011;57735;56.264;43.898;2022-11-23T01:16:56;1.92;;;0.93;;
70322;SDS011;57735;56.264;43.898;2022-11-23T01:19:27;1.80;;;1.15;;
70322;SDS011;57735;56.264;43.898;2022-11-23T01:21:57;3.75;;;1.42;;
70322;SDS011;57735;56.264;43.898;2022-11-23T01:24:30;4.35;;;1.75;;
70322;SDS011;57735;56.264;43.898;2022-11-23T01:27:00;2.70;;;1.70;;
70322;SDS011;57735;56.264;43.898;2022-11-23T01:29:31;1.40;;;1.00;;
70322;SDS011;57735;56.264;43.898;2022-11-23T01:32:02;1.52;;;1.00;;
70322;SDS011;57735;56.264;43.898;2022-11-23T01:34:33;3.97;;;1.48;;
70322;SDS011;57735;56.264;43.898;2022-11-23T01:37:04;3.70;;;1.35;;
70322;SDS011;57735;56.264;43.898;2022-11-23T01:39:35;2.35;;;1.30;;
70322;SDS011;57735;56.264;43.898;2022-11-23T01:42:05;3.25;;;1.52;;
70322;SDS011;57735;56.264;43.898;2022-11-23T01:44:39;3.53;;;1.75;;
70322;SDS011;57735;56.264;43.898;2022-11-23T01:47:11;2.13;;;1.35;;
70322;SDS011;57735;56.264;43.898;2022-11-23T01:49:42;4.32;;;1.83;;
70322;SDS011;57735;56.264;43.898;2022-11-23T01:52:19;4.20;;;1.67;;
70322;SDS011;57735;56.264;43.898;2022-11-23T01:54:53;3.88;;;1.38;;
70322;SDS011;57735;56.264;43.898;2022-11-23T01:57:38;2.08;;;1.25;;
70322;SDS011;57735;56.264;43.898;2022-11-23T02:00:12;2.28;;;1.38;;
70322;SDS011;57735;56.264;43.898;2022-11-23T02:02:45;4.03;;;1.88;;
70322;SDS011;57735;56.264;43.898;2022-11-23T02:05:31;2.42;;;1.55;;
70322;SDS011;57735;56.264;43.898;2022-11-23T02:08:05;2.88;;;1.50;;
70322;SDS011;57735;56.264;43.898;2022-11-23T02:10:37;2.70;;;1.33;;
70322;SDS011;57735;56.264;43.898;2022-11-23T02:13:09;2.60;;;1.52;;
70322;SDS011;57735;56.264;43.898;2022-11-23T02:16:01;3.13;;;1.50;;
70322;SDS011;57735;56.264;43.898;2022-11-23T02:18:33;3.78;;;1.58;;
70322;SDS011;57735;56.264;43.898;2022-11-23T02:21:05;2.92;;;1.67;;
70322;SDS011;57735;56.264;43.898;2022-11-23T02:26:34;4.25;;;2.03;;
70322;SDS011;57735;56.264;43.898;2022-11-23T02:29:22;4.70;;;2.10;;
70322;SDS011;57735;56.264;43.898;2022-11-23T02:31:55;4.30;;;2.08;;
70322;SDS011;57735;56.264;43.898;2022-11-23T02:34:26;3.35;;;1.73;;
70322;SDS011;57735;56.264;43.898;2022-11-23T02:36:57;3.35;;;1.77;;
70322;SDS011;57735;56.264;43.898;2022-11-23T02:39:33;2.45;;;1.52;;
70322;SDS011;57735;56.264;43.898;2022-11-23T02:42:07;2.80;;;1.52;;
70322;SDS011;57735;56.264;43.898;2022-11-23T02:47:39;3.92;;;1.92;;
70322;SDS011;57735;56.264;43.898;2022-11-23T02:50:10;3.50;;;2.00;;
70322;SDS011;57735;56.264;43.898;2022-11-23T02:52:41;3.78;;;2.03;;
70322;SDS011;57735;56.264;43.898;2022-11-23T02:55:12;3.80;;;1.95;;
70322;SDS011;57735;56.264;43.898;2022-11-23T02:57:43;5.60;;;1.90;;
70322;SDS011;57735;56.264;43.898;2022-11-23T03:00:14;4.97;;;2.25;;
70322;SDS011;57735;56.264;43.898;2022-11-23T03:02:45;4.95;;;2.00;;
70322;SDS011;57735;56.264;43.898;2022-11-23T03:05:16;2.97;;;1.73;;
70322;SDS011;57735;56.264;43.898;2022-11-23T03:07:47;3.67;;;1.90;;
70322;SDS011;57735;56.264;43.898;2022-11-23T03:10:19;3.03;;;1.60;;
70322;SDS011;57735;56.264;43.898;2022-11-23T03:12:52;1.80;;;1.10;;
70322;SDS011;57735;56.264;43.898;2022-11-23T03:15:24;4.05;;;1.65;;
70322;SDS011;57735;56.264;43.898;2022-11-23T03:17:56;4.45;;;2.17;;
70322;SDS011;57735;56.264;43.898;2022-11-23T03:20:27;3.45;;;1.52;;
70322;SDS011;57735;56.264;43.898;2022-11-23T03:22:57;3.72;;;1.58;;
70322;SDS011;57735;56.264;43.898;2022-11-23T03:25:28;3.08;;;1.83;;
70322;SDS011;57735;56.264;43.898;2022-11-23T03:28:00;3.47;;;1.45;;
70322;SDS011;57735;56.264;43.898;2022-11-23T03:30:30;2.65;;;1.77;;
70322;SDS011;57735;56.264;43.898;2022-11-23T03:33:01;2.88;;;1.70;;
70322;SDS011;57735;56.264;43.898;2022-11-23T03:35:35;2.55;;;1.55;;
70322;SDS011;57735;56.264;43.898;2022-11-23T03:38:07;3.92;;;1.90;;
70322;SDS011;57735;56.264;43.898;2022-11-23T03:40:38;2.97;;;1.73;;
70322;SDS011;57735;56.264;43.898;2022-11-23T03:43:09;3.60;;;1.88;;
70322;SDS011;57735;56.264;43.898;2022-11-23T03:45:40;4.43;;;1.80;;
70322;SDS011;57735;56.264;43.898;2022-11-23T03:48:11;3.60;;;2.10;;
70322;SDS011;57735;56.264;43.898;2022-11-23T03:50:43;3.55;;;2.05;;
70322;SDS011;57735;56.264;43.898;2022-11-23T03:53:14;3.05;;;1.83;;
70322;SDS011;57735;56.264;43.898;2022-11-23T03:55:47;3.13;;;1.73;;
70322;SDS011;57735;56.264;43.898;2022-11-23T03:58:18;5.32;;;2.50;;
70322;SDS011;57735;56.264;43.898;2022-11-23T04:00:49;3.75;;;2.10;;
70322;SDS011;57735;56.264;43.898;2022-11-23T04:03:22;2.60;;;1.55;;
70322;SDS011;57735;56.264;43.898;2022-11-23T04:05:53;3.00;;;1.70;;
70322;SDS011;57735;56.264;43.898;2022-11-23T04:08:26;4.15;;;2.10;;
70322;SDS011;57735;56.264;43.898;2022-11-23T04:10:59;5.57;;;2.25;;
70322;SDS011;57735;56.264;43.898;2022-11-23T04:13:30;3.40;;;1.77;;
70322;SDS011;57735;56.264;43.898;2022-11-23T04:16:03;2.70;;;1.67;;
70322;SDS011;57735;56.264;43.898;2022-11-23T04:18:36;5.97;;;2.33;;
70322;SDS011;57735;56.264;43.898;2022-11-23T04:21:07;5.75;;;2.33;;
70322;SDS011;57735;56.264;43.898;2022-11-23T04:23:38;6.85;;;2.60;;
70322;SDS011;57735;56.264;43.898;2022-11-23T04:26:08;5.93;;;2.15;;
70322;SDS011;57735;56.264;43.898;2022-11-23T04:28:39;7.68;;;2.70;;
70322;SDS011;57735;56.264;43.898;2022-11-23T04:31:10;4.47;;;2.38;;
70322;SDS011;57735;56.264;43.898;2022-11-23T04:33:41;8.15;;;3.03;;
70322;SDS011;57735;56.264;43.898;2022-11-23T04:36:11;6.43;;;2.42;;
70322;SDS011;57735;56.264;43.898;2022-11-23T04:38:42;10.70;;;3.78;;
70322;SDS011;57735;56.264;43.898;2022-11-23T04:41:13;6.60;;;2.63;;
70322;SDS011;57735;56.264;43.898;2022-11-23T04:43:46;4.93;;;2.53;;
70322;SDS011;57735;56.264;43.898;2022-11-23T04:46:17;4.88;;;2.47;;
70322;SDS011;57735;56.264;43.898;2022-11-23T04:48:48;6.95;;;2.70;;
70322;SDS011;57735;56.264;43.898;2022-11-23T04:51:22;5.80;;;2.53;;
70322;SDS011;57735;56.264;43.898;2022-11-23T04:53:55;5.15;;;3.05;;
70322;SDS011;57735;56.264;43.898;2022-11-23T04:56:26;6.25;;;2.80;;
70322;SDS011;57735;56.264;43.898;2022-11-23T04:58:59;6.78;;;2.35;;
70322;SDS011;57735;56.264;43.898;2022-11-23T05:01:30;4.32;;;2.50;;
70322;SDS011;57735;56.264;43.898;2022-11-23T05:04:03;6.57;;;2.20;;
70322;SDS011;57735;56.264;43.898;2022-11-23T05:06:34;3.20;;;2.08;;
70322;SDS011;57735;56.264;43.898;2022-11-23T05:09:04;3.25;;;2.13;;
70322;SDS011;57735;56.264;43.898;2022-11-23T05:11:35;4.72;;;2.50;;
70322;SDS011;57735;56.264;43.898;2022-11-23T05:14:08;4.32;;;2.50;;
70322;SDS011;57735;56.264;43.898;2022-11-23T05:16:39;5.40;;;2.70;;
70322;SDS011;57735;56.264;43.898;2022-11-23T05:19:10;5.97;;;2.53;;
70322;SDS011;57735;56.264;43.898;2022-11-23T05:21:41;3.22;;;1.95;;
70322;SDS011;57735;56.264;43.898;2022-11-23T05:24:12;3.95;;;2.20;;
70322;SDS011;57735;56.264;43.898;2022-11-23T05:26:43;5.88;;;2.65;;
70322;SDS011;57735;56.264;43.898;2022-11-23T05:29:13;6.93;;;2.80;;
70322;SDS011;57735;56.264;43.898;2022-11-23T05:31:44;8.18;;;2.67;;
70322;SDS011;57735;56.264;43.898;2022-11-23T05:34:15;4.75;;;2.55;;
70322;SDS011;57735;56.264;43.898;2022-11-23T05:36:46;5.13;;;2.40;;
70322;SDS011;57735;56.264;43.898;2022-11-23T05:39:16;6.13;;;2.63;;
70322;SDS011;57735;56.264;43.898;2022-11-23T05:41:47;5.15;;;2.38;;
70322;SDS011;57735;56.264;43.898;2022-11-23T05:44:18;4.72;;;2.25;;
70322;SDS011;57735;56.264;43.898;2022-11-23T05:46:49;5.72;;;2.70;;
70322;SDS011;57735;56.264;43.898;2022-11-23T05:49:22;4.63;;;2.47;;
70322;SDS011;57735;56.264;43.898;2022-11-23T05:51:52;3.88;;;1.98;;
70322;SDS011;57735;56.264;43.898;2022-11-23T05:54:26;4.25;;;2.30;;
70322;SDS011;57735;56.264;43.898;2022-11-23T05:56:56;3.45;;;2.42;;
70322;SDS011;57735;56.264;43.898;2022-11-23T05:59:27;5.68;;;2.75;;
70322;SDS011;57735;56.264;43.898;2022-11-23T06:01:58;4.72;;;2.67;;
70322;SDS011;57735;56.264;43.898;2022-11-23T06:04:29;3.63;;;2.35;;
70322;SDS011;57735;56.264;43.898;2022-11-23T06:07:00;6.35;;;2.72;;
70322;SDS011;57735;56.264;43.898;2022-11-23T06:09:33;5.13;;;3.10;;
70322;SDS011;57735;56.264;43.898;2022-11-23T06:12:06;4.85;;;2.72;;
70322;SDS011;57735;56.264;43.898;2022-11-23T06:14:40;3.60;;;2.33;;
70322;SDS011;57735;56.264;43.898;2022-11-23T06:17:11;8.63;;;2.45;;
70322;SDS011;57735;56.264;43.898;2022-11-23T06:19:41;4.55;;;2.40;;
70322;SDS011;57735;56.264;43.898;2022-11-23T06:22:12;5.40;;;3.25;;
70322;SDS011;57735;56.264;43.898;2022-11-23T06:24:44;6.35;;;2.78;;
70322;SDS011;57735;56.264;43.898;2022-11-23T06:27:15;4.82;;;2.65;;
70322;SDS011;57735;56.264;43.898;2022-11-23T06:29:47;5.80;;;2.83;;
70322;SDS011;57735;56.264;43.898;2022-11-23T06:32:17;5.20;;;2.97;;
70322;SDS011;57735;56.264;43.898;2022-11-23T06:34:48;6.07;;;3.10;;
70322;SDS011;57735;56.264;43.898;2022-11-23T06:37:19;6.57;;;2.85;;
70322;SDS011;57735;56.264;43.898;2022-11-23T06:39:50;6.82;;;2.47;;
70322;SDS011;57735;56.264;43.898;2022-11-23T06:42:20;6.15;;;1.98;;
70322;SDS011;57735;56.264;43.898;2022-11-23T06:44:51;4.20;;;2.00;;
70322;SDS011;57735;56.264;43.898;2022-11-23T06:47:22;4.82;;;2.65;;
70322;SDS011;57735;56.264;43.898;2022-11-23T06:49:53;3.30;;;1.88;;
70322;SDS011;57735;56.264;43.898;2022-11-23T06:52:24;4.45;;;2.75;;
70322;SDS011;57735;56.264;43.898;2022-11-23T06:54:55;3.92;;;2.20;;
70322;SDS011;57735;56.264;43.898;2022-11-23T06:57:28;3.60;;;2.42;;
70322;SDS011;57735;56.264;43.898;2022-11-23T07:00:01;5.70;;;2.35;;
70322;SDS011;57735;56.264;43.898;2022-11-23T07:02:35;5.00;;;2.83;;
70322;SDS011;57735;56.264;43.898;2022-11-23T07:05:06;5.78;;;3.08;;
70322;SDS011;57735;56.264;43.898;2022-11-23T07:07:38;4.43;;;2.55;;
70322;SDS011;57735;56.264;43.898;2022-11-23T07:10:09;5.93;;;2.88;;
70322;SDS011;57735;56.264;43.898;2022-11-23T07:12:43;6.30;;;3.38;;
70322;SDS011;57735;56.264;43.898;2022-11-23T07:15:14;3.60;;;2.30;;
70322;SDS011;57735;56.264;43.898;2022-11-23T07:17:45;3.15;;;2.10;;
70322;SDS011;57735;56.264;43.898;2022-11-23T07:20:19;4.53;;;2.20;;
70322;SDS011;57735;56.264;43.898;2022-11-23T07:22:59;7.57;;;2.92;;
70322;SDS011;57735;56.264;43.898;2022-11-23T07:25:32;4.45;;;2.30;;
70322;SDS011;57735;56.264;43.898;2022-11-23T07:28:05;5.18;;;2.60;;
70322;SDS011;57735;56.264;43.898;2022-11-23T07:30:37;3.78;;;2.03;;
70322;SDS011;57735;56.264;43.898;2022-11-23T07:33:09;6.40;;;2.65;;
70322;SDS011;57735;56.264;43.898;2022-11-23T07:35:41;3.92;;;2.38;;
70322;SDS011;57735;56.264;43.898;2022-11-23T07:38:12;4.78;;;2.70;;
70322;SDS011;57735;56.264;43.898;2022-11-23T07:40:43;5.40;;;2.90;;
70322;SDS011;57735;56.264;43.898;2022-11-23T07:43:18;5.82;;;2.47;;
70322;SDS011;57735;56.264;43.898;2022-11-23T07:45:49;4.43;;;2.13;;
70322;SDS011;57735;56.264;43.898;2022-11-23T07:48:19;9.88;;;2.85;;
70322;SDS011;57735;56.264;43.898;2022-11-23T07:50:51;2.92;;;2.10;;
70322;SDS011;57735;56.264;43.898;2022-11-23T07:53:22;2.92;;;1.90;;
70322;SDS011;57735;56.264;43.898;2022-11-23T07:55:54;2.97;;;2.13;;
70322;SDS011;57735;56.264;43.898;2022-11-23T07:58:27;4.30;;;2.50;;
70322;SDS011;57735;56.264;43.898;2022-11-23T08:00:57;7.05;;;3.40;;
70322;SDS011;57735;56.264;43.898;2022-11-23T08:03:28;4.28;;;2.33;;
70322;SDS011;57735;56.264;43.898;2022-11-23T08:05:59;3.75;;;2.58;;
70322;SDS011;57735;56.264;43.898;2022-11-23T08:08:30;5.60;;;3.05;;
70322;SDS011;57735;56.264;43.898;2022-11-23T08:11:01;10.48;;;3.72;;
70322;SDS011;57735;56.264;43.898;2022-11-23T08:13:33;4.13;;;2.58;;
70322;SDS011;57735;56.264;43.898;2022-11-23T08:16:06;5.13;;;2.63;;
70322;SDS011;57735;56.264;43.898;2022-11-23T08:18:37;4.40;;;2.60;;
70322;SDS011;57735;56.264;43.898;2022-11-23T08:21:08;6.25;;;3.20;;
70322;SDS011;57735;56.264;43.898;2022-11-23T08:23:39;5.43;;;2.78;;
70322;SDS011;57735;56.264;43.898;2022-11-23T08:26:10;7.00;;;2.50;;
70322;SDS011;57735;56.264;43.898;2022-11-23T08:28:43;6.20;;;3.38;;
70322;SDS011;57735;56.264;43.898;2022-11-23T08:31:14;6.32;;;3.40;;
70322;SDS011;57735;56.264;43.898;2022-11-23T08:33:45;7.40;;;3.22;;
70322;SDS011;57735;56.264;43.898;2022-11-23T08:36:18;9.40;;;3.42;;
70322;SDS011;57735;56.264;43.898;2022-11-23T08:38:50;5.50;;;3.10;;
70322;SDS011;57735;56.264;43.898;2022-11-23T08:41:22;12.95;;;6.00;;
70322;SDS011;57735;56.264;43.898;2022-11-23T08:43:52;8.45;;;3.92;;
70322;SDS011;57735;56.264;43.898;2022-11-23T08:46:23;5.43;;;2.80;;
70322;SDS011;57735;56.264;43.898;2022-11-23T08:48:54;8.07;;;3.88;;
70322;SDS011;57735;56.264;43.898;2022-11-23T08:51:25;5.13;;;2.30;;
70322;SDS011;57735;56.264;43.898;2022-11-23T08:53:56;3.83;;;1.98;;
70322;SDS011;57735;56.264;43.898;2022-11-23T08:56:26;9.23;;;3.33;;
70322;SDS011;57735;56.264;43.898;2022-11-23T08:58:57;8.98;;;3.90;;
70322;SDS011;57735;56.264;43.898;2022-11-23T09:01:28;6.25;;;3.78;;
70322;SDS011;57735;56.264;43.898;2022-11-23T09:03:59;5.32;;;3.22;;
70322;SDS011;57735;56.264;43.898;2022-11-23T09:06:34;8.23;;;3.30;;
70322;SDS011;57735;56.264;43.898;2022-11-23T09:09:07;8.10;;;4.20;;
70322;SDS011;57735;56.264;43.898;2022-11-23T09:11:38;12.38;;;4.95;;
70322;SDS011;57735;56.264;43.898;2022-11-23T09:14:11;9.05;;;3.78;;
70322;SDS011;57735;56.264;43.898;2022-11-23T09:16:42;7.50;;;3.42;;
70322;SDS011;57735;56.264;43.898;2022-11-23T09:19:13;14.02;;;4.32;;
70322;SDS011;57735;56.264;43.898;2022-11-23T09:21:47;6.47;;;3.47;;
70322;SDS011;57735;56.264;43.898;2022-11-23T09:24:18;8.80;;;4.35;;
70322;SDS011;57735;56.264;43.898;2022-11-23T09:26:49;9.25;;;4.47;;
70322;SDS011;57735;56.264;43.898;2022-11-23T09:29:19;9.82;;;3.10;;
70322;SDS011;57735;56.264;43.898;2022-11-23T09:31:55;9.43;;;4.18;;
70322;SDS011;57735;56.264;43.898;2022-11-23T09:34:25;6.53;;;3.30;;
70322;SDS011;57735;56.264;43.898;2022-11-23T09:36:56;9.77;;;3.40;;
70322;SDS011;57735;56.264;43.898;2022-11-23T09:39:27;6.15;;;3.85;;
70322;SDS011;57735;56.264;43.898;2022-11-23T09:42:01;7.63;;;3.90;;
70322;SDS011;57735;56.264;43.898;2022-11-23T09:44:57;4.97;;;3.00;;
70322;SDS011;57735;56.264;43.898;2022-11-23T09:53:11;7.90;;;2.72;;
70322;SDS011;57735;56.264;43.898;2022-11-23T09:55:49;4.93;;;2.90;;
70322;SDS011;57735;56.264;43.898;2022-11-23T09:58:27;7.40;;;3.10;;
70322;SDS011;57735;56.264;43.898;2022-11-23T10:01:06;12.75;;;4.90;;
70322;SDS011;57735;56.264;43.898;2022-11-23T10:03:42;11.25;;;5.45;;
70322;SDS011;57735;56.264;43.898;2022-11-23T10:06:21;11.27;;;5.00;;
70322;SDS011;57735;56.264;43.898;2022-11-23T10:08:56;12.82;;;5.88;;
70322;SDS011;57735;56.264;43.898;2022-11-23T10:20:37;6.97;;;3.53;;
70322;SDS011;57735;56.264;43.898;2022-11-23T10:23:25;13.32;;;4.90;;
70322;SDS011;57735;56.264;43.898;2022-11-23T10:26:17;9.65;;;4.50;;
70322;SDS011;57735;56.264;43.898;2022-11-23T10:28:50;6.93;;;3.45;;
70322;SDS011;57735;56.264;43.898;2022-11-23T10:31:26;7.57;;;4.30;;
70322;SDS011;57735;56.264;43.898;2022-11-23T10:36:40;9.85;;;3.72;;
70322;SDS011;57735;56.264;43.898;2022-11-23T10:39:19;12.30;;;5.97;;
70322;SDS011;57735;56.264;43.898;2022-11-23T10:41:52;9.57;;;4.55;;
70322;SDS011;57735;56.264;43.898;2022-11-23T10:44:34;8.27;;;4.63;;
70322;SDS011;57735;56.264;43.898;2022-11-23T10:47:07;12.48;;;5.68;;
70322;SDS011;57735;56.264;43.898;2022-11-23T10:49:38;11.57;;;5.10;;
70322;SDS011;57735;56.264;43.898;2022-11-23T10:52:29;13.23;;;5.70;;
70322;SDS011;57735;56.264;43.898;2022-11-23T10:55:04;16.42;;;7.22;;
70322;SDS011;57735;56.264;43.898;2022-11-23T10:57:42;17.85;;;6.93;;
70322;SDS011;57735;56.264;43.898;2022-11-23T11:00:16;10.63;;;4.68;;
70322;SDS011;57735;56.264;43.898;2022-11-23T11:02:49;8.88;;;4.57;;
70322;SDS011;57735;56.264;43.898;2022-11-23T11:08:17;10.38;;;4.05;;
70322;SDS011;57735;56.264;43.898;2022-11-23T11:10:56;16.55;;;6.30;;
70322;SDS011;57735;56.264;43.898;2022-11-23T11:16:04;5.60;;;3.47;;
70322;SDS011;57735;56.264;43.898;2022-11-23T11:18:38;5.22;;;2.97;;
70322;SDS011;57735;56.264;43.898;2022-11-23T11:21:16;6.35;;;3.75;;
70322;SDS011;57735;56.264;43.898;2022-11-23T11:24:02;5.95;;;3.13;;
70322;SDS011;57735;56.264;43.898;2022-11-23T11:26:35;6.05;;;2.72;;
70322;SDS011;57735;56.264;43.898;2022-11-23T11:29:37;6.93;;;3.22;;
70322;SDS011;57735;56.264;43.898;2022-11-23T11:40:22;5.43;;;3.00;;
70322;SDS011;57735;56.264;43.898;2022-11-23T11:43:06;5.95;;;3.22;;
70322;SDS011;57735;56.264;43.898;2022-11-23T11:46:01;7.55;;;2.53;;
70322;SDS011;57735;56.264;43.898;2022-11-23T11:48:37;4.63;;;2.53;;
70322;SDS011;57735;56.264;43.898;2022-11-23T11:59:36;4.43;;;2.38;;
70322;SDS011;57735;56.264;43.898;2022-11-23T12:02:26;5.03;;;2.47;;
70322;SDS011;57735;56.264;43.898;2022-11-23T12:05:10;7.15;;;2.80;;
70322;SDS011;57735;56.264;43.898;2022-11-23T12:08:18;6.43;;;2.47;;
70322;SDS011;57735;56.264;43.898;2022-11-23T12:10:59;4.55;;;2.30;;
70322;SDS011;57735;56.264;43.898;2022-11-23T12:13:34;3.95;;;2.10;;
70322;SDS011;57735;56.264;43.898;2022-11-23T12:19:41;3.10;;;1.88;;
70322;SDS011;57735;56.264;43.898;2022-11-23T12:22:44;6.53;;;2.70;;
70322;SDS011;57735;56.264;43.898;2022-11-23T12:31:41;6.95;;;3.13;;
70322;SDS011;57735;56.264;43.898;2022-11-23T12:34:36;6.38;;;3.03;;
70322;SDS011;57735;56.264;43.898;2022-11-23T12:43:12;4.78;;;2.72;;
70322;SDS011;57735;56.264;43.898;2022-11-23T12:48:32;4.15;;;2.50;;
70322;SDS011;57735;56.264;43.898;2022-11-23T12:51:35;4.63;;;1.67;;
70322;SDS011;57735;56.264;43.898;2022-11-23T12:57:19;5.30;;;2.80;;
70322;SDS011;57735;56.264;43.898;2022-11-23T13:00:02;5.70;;;2.80;;
70322;SDS011;57735;56.264;43.898;2022-11-23T13:20:24;7.07;;;2.70;;
70322;SDS011;57735;56.264;43.898;2022-11-23T13:23:19;4.88;;;2.22;;
70322;SDS011;57735;56.264;43.898;2022-11-23T13:28:47;5.13;;;2.70;;
70322;SDS011;57735;56.264;43.898;2022-11-23T13:31:28;4.28;;;2.42;;
70322;SDS011;57735;56.264;43.898;2022-11-23T13:34:06;4.53;;;2.10;;
70322;SDS011;57735;56.264;43.898;2022-11-23T13:37:16;6.57;;;2.90;;
70322;SDS011;57735;56.264;43.898;2022-11-23T13:40:19;3.15;;;2.22;;
70322;SDS011;57735;56.264;43.898;2022-11-23T13:42:56;5.53;;;2.67;;
70322;SDS011;57735;56.264;43.898;2022-11-23T13:45:46;4.60;;;2.33;;
70322;SDS011;57735;56.264;43.898;2022-11-23T13:48:51;3.70;;;2.10;;
70322;SDS011;57735;56.264;43.898;2022-11-23T13:51:26;3.90;;;2.00;;
70322;SDS011;57735;56.264;43.898;2022-11-23T13:54:02;3.78;;;1.90;;
70322;SDS011;57735;56.264;43.898;2022-11-23T13:56:38;3.53;;;1.98;;
70322;SDS011;57735;56.264;43.898;2022-11-23T14:04:40;5.30;;;2.72;;
70322;SDS011;57735;56.264;43.898;2022-11-23T14:07:17;5.15;;;2.60;;
70322;SDS011;57735;56.264;43.898;2022-11-23T14:09:54;4.88;;;2.70;;
70322;SDS011;57735;56.264;43.898;2022-11-23T14:12:36;4.15;;;2.60;;
70322;SDS011;57735;56.264;43.898;2022-11-23T14:15:19;7.03;;;2.83;;
70322;SDS011;57735;56.264;43.898;2022-11-23T14:24:08;3.90;;;2.35;;
70322;SDS011;57735;56.264;43.898;2022-11-23T14:42:00;4.43;;;2.40;;
70322;SDS011;57735;56.264;43.898;2022-11-23T14:44:34;4.18;;;2.35;;
70322;SDS011;57735;56.264;43.898;2022-11-23T14:47:06;5.70;;;2.97;;
70322;SDS011;57735;56.264;43.898;2022-11-23T14:49:48;8.95;;;3.70;;
70322;SDS011;57735;56.264;43.898;2022-11-23T14:52:25;5.60;;;2.88;;
70322;SDS011;57735;56.264;43.898;2022-11-23T14:55:04;4.32;;;2.30;;
70322;SDS011;57735;56.264;43.898;2022-11-23T14:57:43;5.10;;;2.35;;
70322;SDS011;57735;56.264;43.898;2022-11-23T15:00:24;6.65;;;3.53;;
70322;SDS011;57735;56.264;43.898;2022-11-23T15:05:49;9.05;;;3.53;;
70322;SDS011;57735;56.264;43.898;2022-11-23T15:08:29;13.25;;;4.70;;
70322;SDS011;57735;56.264;43.898;2022-11-23T15:11:18;7.20;;;3.72;;
70322;SDS011;57735;56.264;43.898;2022-11-23T15:13:53;4.80;;;2.75;;
70322;SDS011;57735;56.264;43.898;2022-11-23T15:16:26;7.60;;;2.78;;
70322;SDS011;57735;56.264;43.898;2022-11-23T15:18:58;6.03;;;2.75;;
70322;SDS011;57735;56.264;43.898;2022-11-23T15:21:28;3.38;;;2.10;;
70322;SDS011;57735;56.264;43.898;2022-11-23T15:24:01;5.50;;;3.25;;
70322;SDS011;57735;56.264;43.898;2022-11-23T15:26:32;6.28;;;2.90;;
70322;SDS011;57735;56.264;43.898;2022-11-23T15:29:03;4.90;;;2.40;;
70322;SDS011;57735;56.264;43.898;2022-11-23T15:31:34;7.30;;;2.63;;
70322;SDS011;57735;56.264;43.898;2022-11-23T15:36:44;6.72;;;2.50;;
70322;SDS011;57735;56.264;43.898;2022-11-23T15:39:19;4.50;;;2.50;;
70322;SDS011;57735;56.264;43.898;2022-11-23T15:41:53;5.47;;;2.60;;
70322;SDS011;57735;56.264;43.898;2022-11-23T15:44:25;3.83;;;2.65;;
70322;SDS011;57735;56.264;43.898;2022-11-23T15:49:38;7.35;;;2.78;;
70322;SDS011;57735;56.264;43.898;2022-11-23T15:52:14;4.53;;;2.72;;
70322;SDS011;57735;56.264;43.898;2022-11-23T15:54:50;5.50;;;2.50;;
70322;SDS011;57735;56.264;43.898;2022-11-23T15:57:22;6.68;;;2.38;;
70322;SDS011;57735;56.264;43.898;2022-11-23T15:59:59;4.07;;;2.60;;
70322;SDS011;57735;56.264;43.898;2022-11-23T16:02:33;10.77;;;2.53;;
70322;SDS011;57735;56.264;43.898;2022-11-23T16:05:16;5.30;;;2.45;;
70322;SDS011;57735;56.264;43.898;2022-11-23T16:07:54;4.90;;;2.63;;
70322;SDS011;57735;56.264;43.898;2022-11-23T16:13:03;6.45;;;3.45;;
70322;SDS011;57735;56.264;43.898;2022-11-23T16:15:40;7.50;;;3.47;;
70322;SDS011;57735;56.264;43.898;2022-11-23T16:18:19;8.45;;;4.22;;
70322;SDS011;57735;56.264;43.898;2022-11-23T16:20:58;11.02;;;4.75;;
70322;SDS011;57735;56.264;43.898;2022-11-23T16:26:18;11.82;;;4.75;;
70322;SDS011;57735;56.264;43.898;2022-11-23T16:28:50;11.32;;;5.13;;
70322;SDS011;57735;56.264;43.898;2022-11-23T16:34:11;8.57;;;3.65;;
70322;SDS011;57735;56.264;43.898;2022-11-23T16:36:47;11.10;;;5.63;;
70322;SDS011;57735;56.264;43.898;2022-11-23T16:39:18;9.80;;;4.50;;
70322;SDS011;57735;56.264;43.898;2022-11-23T16:41:49;14.20;;;5.43;;
70322;SDS011;57735;56.264;43.898;2022-11-23T16:44:23;11.32;;;5.32;;
70322;SDS011;57735;56.264;43.898;2022-11-23T16:46:54;11.02;;;4.80;;
70322;SDS011;57735;56.264;43.898;2022-11-23T16:49:25;20.30;;;6.50;;
70322;SDS011;57735;56.264;43.898;2022-11-23T16:51:56;14.55;;;5.43;;
70322;SDS011;57735;56.264;43.898;2022-11-23T16:54:26;11.35;;;4.50;;
70322;SDS011;57735;56.264;43.898;2022-11-23T16:56:57;16.38;;;6.03;;
70322;SDS011;57735;56.264;43.898;2022-11-23T16:59:33;14.45;;;4.88;;
70322;SDS011;57735;56.264;43.898;2022-11-23T17:02:07;14.20;;;5.88;;
70322;SDS011;57735;56.264;43.898;2022-11-23T17:04:42;18.85;;;5.30;;
70322;SDS011;57735;56.264;43.898;2022-11-23T17:07:13;15.38;;;5.45;;
70322;SDS011;57735;56.264;43.898;2022-11-23T17:09:44;15.65;;;6.10;;
70322;SDS011;57735;56.264;43.898;2022-11-23T17:12:15;16.45;;;6.25;;
70322;SDS011;57735;56.264;43.898;2022-11-23T17:14:47;14.57;;;5.95;;
70322;SDS011;57735;56.264;43.898;2022-11-23T17:17:20;12.18;;;5.70;;
70322;SDS011;57735;56.264;43.898;2022-11-23T17:19:51;15.30;;;5.80;;
70322;SDS011;57735;56.264;43.898;2022-11-23T17:22:22;16.42;;;5.82;;
70322;SDS011;57735;56.264;43.898;2022-11-23T17:24:55;13.77;;;5.97;;
70322;SDS011;57735;56.264;43.898;2022-11-23T17:27:28;15.70;;;6.65;;